Mineral Ridge, Ohio
Current Conditions -  °F | °C
As of 2:51 PM on Thursday 30 Oct 2014 (Local Time) from KYNG Reporting Station
Overcast Overcast  
Wind Chill: 50°   Ceiling: 4300
Heat Index: 50°   Visibility: 10mi
Dew Point: 34°   Wind: 7mph
Humidity: 54%   Direction: 240°WSW
Pressure: 30.06"   Gusts: NA
Location:  41.14°N, 80.77°W
Report Text: KYNG 301851Z 24006KT 10SM FEW027 OVC043 10/01 A3006 RMK AO2 SLP185 T01000011 $
Loading
Personal Weather Stations






























Interactive Weather Map
Tropical Storm Tracking
New forecast layout! Learn more

10-Day Weather Forecast

Advertisements
Track Severe Weather on mobile